Time;durP1;ratioP1;P1;durP2;ratioP2;P2;SDS_P1;SDS_P2;PMS_P1;PMS_P2;Temp;Humidity;BMP_temperature;BMP_pressure;BME280_temperature;BME280_humidity;BME280_pressure;Samples;Min_cycle;Max_cycle;Signal;HPM_P1;HPM_P2
2022/11/20 00:02:17;;;;;;;9.98;5.40;;;;;;;-1.87;80.71;99505.34;4903235;29;20043;-73
2022/11/20 00:04:42;;;;;;;12.63;7.15;;;;;;;-1.86;80.40;99507.91;4901508;29;20145;-76
2022/11/20 00:07:06;;;;;;;13.57;7.68;;;;;;;-1.99;80.51;99501.25;4904323;29;20050;-74
2022/11/20 00:09:31;;;;;;;12.07;7.18;;;;;;;-2.06;80.55;99507.53;4899858;29;20039;-77
2022/11/20 00:11:56;;;;;;;12.30;7.30;;;;;;;-2.06;81.09;99504.06;4902516;29;20054;-75
2022/11/20 00:14:20;;;;;;;15.50;8.40;;;;;;;-1.98;81.11;99504.72;4902796;29;20058;-72
2022/11/20 00:16:45;;;;;;;11.00;6.32;;;;;;;-1.89;81.17;99507.97;4905634;29;20063;-75
2022/11/20 00:19:09;;;;;;;11.80;7.82;;;;;;;-1.95;80.97;99510.75;4899457;29;20463;-72
2022/11/20 00:21:34;;;;;;;13.50;7.38;;;;;;;-1.99;81.24;99503.88;4904479;29;20043;-73
2022/11/20 00:23:59;;;;;;;16.38;7.75;;;;;;;-1.89;81.35;99507.97;4902093;29;20043;-73
2022/11/20 00:26:26;;;;;;;13.18;7.35;;;;;;;-1.93;81.21;99508.97;4899042;29;20051;-73
2022/11/20 00:28:53;;;;;;;12.68;7.30;;;;;;;-1.90;81.14;99511.47;4899339;29;20050;-71
2022/11/20 00:31:18;;;;;;;14.07;8.13;;;;;;;-1.92;81.52;99517.66;4901654;29;20130;-71
2022/11/20 00:33:43;;;;;;;11.23;7.00;;;;;;;-1.89;81.48;99514.94;4882073;29;20126;-71
2022/11/20 00:36:11;;;;;;;11.38;6.70;;;;;;;-1.87;81.42;99506.19;4902475;28;20395;-74
2022/11/20 00:38:38;;;;;;;11.32;7.15;;;;;;;-1.85;81.53;99512.25;4900543;29;20051;-73
2022/11/20 00:41:06;;;;;;;11.55;6.90;;;;;;;-1.77;81.67;99511.19;4918853;28;20046;-72
2022/11/20 00:43:31;;;;;;;13.82;8.45;;;;;;;-1.79;81.11;99512.97;4883674;29;20410;-71
2022/11/20 00:46:00;;;;;;;15.82;8.68;;;;;;;-1.75;81.20;99517.25;4901387;28;20094;-64
2022/11/20 00:48:25;;;;;;;15.32;9.10;;;;;;;-1.84;80.82;99515.72;4901370;29;20050;-71
2022/11/20 00:50:49;;;;;;;6.32;4.22;;;;;;;-1.76;81.00;99508.53;4918715;28;20046;-69
2022/11/20 00:53:14;;;;;;;17.23;9.77;;;;;;;-1.83;80.84;99507.84;4899603;29;20043;-68
2022/11/20 00:55:39;;;;;;;16.13;8.98;;;;;;;-1.87;80.96;99516.66;4899421;29;20057;-72
2022/11/20 00:58:03;;;;;;;16.13;8.50;;;;;;;-1.90;80.93;99510.63;4927172;28;20109;-65
2022/11/20 01:00:28;;;;;;;15.45;9.23;;;;;;;-1.92;80.87;99518.50;4925798;29;20079;-71
2022/11/20 01:02:52;;;;;;;9.63;5.88;;;;;;;-1.85;80.87;99514.84;4918410;28;20051;-70
2022/11/20 01:05:17;;;;;;;17.13;10.32;;;;;;;-1.90;80.75;99516.69;4916180;28;20135;-66
2022/11/20 01:07:41;;;;;;;15.25;7.97;;;;;;;-1.92;80.86;99508.03;4923510;28;20047;-67
2022/11/20 01:10:06;;;;;;;15.80;9.52;;;;;;;-1.88;80.39;99512.31;4902216;29;20043;-65
2022/11/20 01:12:31;;;;;;;14.05;7.65;;;;;;;-1.84;80.31;99515.72;4920273;28;20053;-65
2022/11/20 01:14:56;;;;;;;16.20;10.07;;;;;;;-1.94;80.11;99514.22;4897359;29;20050;-68
2022/11/20 01:17:20;;;;;;;18.48;9.35;;;;;;;-2.04;80.52;99513.56;4918801;28;20078;-66
2022/11/20 01:19:48;;;;;;;15.85;9.38;;;;;;;-1.95;79.95;99515.97;4919897;28;20439;-67
2022/11/20 01:22:13;;;;;;;16.33;8.57;;;;;;;-1.99;80.09;99513.44;4919057;28;20070;-68
2022/11/20 01:24:38;;;;;;;15.75;8.50;;;;;;;-1.92;80.04;99526.31;4918062;28;20043;-68
2022/11/20 01:27:02;;;;;;;15.98;9.68;;;;;;;-2.01;79.66;99508.25;4918519;28;20050;-68
2022/11/20 01:29:27;;;;;;;12.00;7.47;;;;;;;-1.96;79.59;99522.09;4918136;28;20047;-72
2022/11/20 01:31:52;;;;;;;9.98;7.20;;;;;;;-2.03;79.57;99517.88;4918082;28;20051;-68
2022/11/20 01:34:19;;;;;;;9.30;5.88;;;;;;;-1.93;79.29;99524.63;4917758;28;20050;-66
2022/11/20 01:36:44;;;;;;;11.80;5.45;;;;;;;-1.78;78.44;99510.34;4917810;28;20062;-67
2022/11/20 01:39:14;;;;;;;13.38;8.63;;;;;;;-1.99;78.08;99514.31;4916989;28;20059;-67
2022/11/20 01:44:45;;;;;;;14.57;8.25;;;;;;;-1.98;78.14;99530.84;4911700;28;20055;-66
2022/11/20 01:47:14;;;;;;;8.63;4.93;;;;;;;-2.06;78.09;99531.03;4917819;28;20098;-66
2022/11/20 01:49:48;;;;;;;8.65;5.38;;;;;;;-2.12;78.43;99520.69;4917772;28;20503;-67
2022/11/20 01:52:19;;;;;;;10.00;5.72;;;;;;;-1.93;78.13;99526.38;4904933;28;20418;-67
2022/11/20 01:55:00;;;;;;;13.20;8.70;;;;;;;-2.09;77.87;99535.44;4884663;29;20047;-67
2022/11/20 01:57:28;;;;;;;12.90;8.20;;;;;;;-2.25;78.13;99529.69;4917298;28;20035;-66
2022/11/20 02:00:00;;;;;;;13.18;6.95;;;;;;;-2.30;78.48;99544.63;4900374;29;20043;-67
2022/11/20 02:02:25;;;;;;;12.18;7.47;;;;;;;-2.27;78.79;99550.63;4897969;29;20035;-68
2022/11/20 02:04:54;;;;;;;12.90;8.13;;;;;;;-2.05;78.15;99551.03;4916531;29;20046;-68
2022/11/20 02:07:19;;;;;;;8.40;5.35;;;;;;;-2.07;78.11;99549.34;4898126;29;20043;-66
2022/11/20 02:09:44;;;;;;;10.75;6.57;;;;;;;-1.88;77.44;99554.13;4897543;29;20090;-68
2022/11/20 02:13:42;;;;;;;9.48;6.13;;;;;;;-1.94;76.98;99562.09;4880126;29;20056;-67
2022/11/20 02:14:53;;;;;;;14.75;7.43;;;;;;;-2.01;76.86;99565.72;4902745;29;20073;-69
2022/11/20 02:17:18;;;;;;;11.52;7.43;;;;;;;-2.11;76.65;99555.50;4900104;29;20051;-67
2022/11/20 02:19:42;;;;;;;13.93;8.40;;;;;;;-2.21;76.90;99557.47;4900651;29;20750;-66
2022/11/20 02:22:22;;;;;;;12.52;7.68;;;;;;;-2.31;77.49;99558.56;4918364;29;20044;-66
2022/11/20 02:24:49;;;;;;;14.02;8.02;;;;;;;-2.22;77.53;99560.97;4915495;29;20058;-66
2022/11/20 02:27:16;;;;;;;12.20;7.78;;;;;;;-2.32;77.64;99572.50;4917176;29;20051;-65
2022/11/20 02:30:03;;;;;;;12.43;7.65;;;;;;;-2.28;78.08;99567.19;4899775;29;20035;-66
2022/11/20 02:32:32;;;;;;;12.95;7.70;;;;;;;-2.36;78.07;99579.53;4906784;29;20043;-65
2022/11/20 02:34:58;;;;;;;11.68;6.97;;;;;;;-2.36;78.48;99569.09;4915555;28;20043;-65
2022/11/20 02:37:25;;;;;;;14.32;8.43;;;;;;;-2.35;78.25;99573.41;4897030;29;20541;-65
2022/11/20 02:39:51;;;;;;;14.35;8.18;;;;;;;-2.35;78.49;99576.03;4909087;29;20070;-67
2022/11/20 02:42:16;;;;;;;12.30;8.05;;;;;;;-2.30;78.41;99573.34;4913688;29;20079;-66
2022/11/20 02:44:41;;;;;;;13.00;7.82;;;;;;;-2.27;78.20;99575.88;4897880;29;20047;-67
2022/11/20 02:47:05;;;;;;;12.82;6.90;;;;;;;-2.32;78.48;99577.72;4917152;29;20054;-64
2022/11/20 02:49:30;;;;;;;13.00;7.43;;;;;;;-2.35;78.23;99575.16;4917032;28;20043;-64
2022/11/20 02:51:55;;;;;;;11.43;7.00;;;;;;;-2.35;78.25;99577.78;4916872;28;20417;-68
2022/11/20 02:54:19;;;;;;;9.57;6.35;;;;;;;-2.27;78.59;99583.72;4916147;28;20039;-67
2022/11/20 02:56:44;;;;;;;12.60;8.75;;;;;;;-2.25;78.10;99576.69;4897290;29;20048;-67
2022/11/20 02:59:09;;;;;;;11.88;6.93;;;;;;;-2.32;77.73;99582.94;4898430;29;20048;-66
2022/11/20 03:01:33;;;;;;;11.75;7.20;;;;;;;-2.34;78.12;99572.53;4898593;29;20035;-64
2022/11/20 03:03:58;;;;;;;11.82;7.13;;;;;;;-2.33;78.17;99582.06;4917099;28;20051;-63
2022/11/20 03:06:23;;;;;;;12.93;7.30;;;;;;;-2.36;78.26;99576.91;4916683;28;20406;-64
2022/11/20 03:08:48;;;;;;;15.57;8.75;;;;;;;-2.39;78.22;99574.38;4879740;29;20046;-64
2022/11/20 03:11:12;;;;;;;11.57;7.13;;;;;;;-2.36;78.12;99578.66;4884197;29;20135;-65
2022/11/20 03:13:37;;;;;;;15.15;7.47;;;;;;;-2.37;78.10;99587.41;4913430;28;20043;-64
2022/11/20 03:16:12;;;;;;;11.55;7.50;;;;;;;-2.34;78.18;99593.41;4919921;28;20063;-66
2022/11/20 03:18:37;;;;;;;12.73;7.38;;;;;;;-2.35;78.44;99590.81;4919709;28;20379;-64
2022/11/20 03:21:02;;;;;;;11.35;7.35;;;;;;;-2.36;78.12;99589.09;4920563;28;20051;-64
2022/11/20 03:23:30;;;;;;;10.00;6.32;;;;;;;-2.34;78.06;99592.56;4890457;28;20142;-67
2022/11/20 03:25:55;;;;;;;10.20;6.47;;;;;;;-2.34;78.07;99592.56;4918940;29;20089;-66
2022/11/20 03:28:20;;;;;;;10.07;6.70;;;;;;;-2.33;78.01;99583.81;4901403;29;20035;-67
2022/11/20 03:30:44;;;;;;;11.95;7.00;;;;;;;-2.31;77.70;99593.34;4899464;29;20054;-67
2022/11/20 03:33:09;;;;;;;7.90;4.93;;;;;;;-2.07;77.89;99591.13;4903115;29;20414;-68
2022/11/20 03:35:34;;;;;;;12.27;7.80;;;;;;;-2.14;77.24;99593.00;4884170;29;20101;-67
2022/11/20 03:37:58;;;;;;;10.68;7.53;;;;;;;-2.25;77.19;99590.59;4898977;29;20044;-66
2022/11/20 03:40:23;;;;;;;12.68;7.07;;;;;;;-2.28;77.33;99593.31;4901139;29;20043;-67
2022/11/20 03:42:48;;;;;;;13.30;8.38;;;;;;;-2.17;77.02;99606.13;4901600;29;20047;-66
2022/11/20 03:45:17;;;;;;;11.68;6.45;;;;;;;-2.17;77.27;99587.00;4907924;29;20039;-67
2022/11/20 03:47:42;;;;;;;11.70;6.97;;;;;;;-2.29;76.93;99588.09;4905751;29;20054;-66
2022/11/20 03:50:08;;;;;;;11.20;7.45;;;;;;;-2.41;77.40;99599.66;4900024;29;20040;-66
2022/11/20 03:52:34;;;;;;;10.18;6.78;;;;;;;-2.44;77.91;99604.94;4906079;28;20039;-66
2022/11/20 03:54:59;;;;;;;13.80;7.63;;;;;;;-2.31;77.74;99608.16;4902157;29;20047;-65
2022/11/20 03:57:24;;;;;;;14.02;7.38;;;;;;;-2.37;77.75;99608.31;4888875;29;20134;-66
2022/11/20 03:59:48;;;;;;;11.55;6.88;;;;;;;-2.35;77.45;99623.00;4919462;28;20047;-66
2022/11/20 04:02:13;;;;;;;14.10;7.78;;;;;;;-2.27;77.88;99615.06;4919142;28;20113;-66
2022/11/20 04:04:37;;;;;;;4.80;3.35;;;;;;;-2.07;77.51;99623.34;4902182;29;20042;-65
2022/11/20 04:07:02;;;;;;;12.32;6.45;;;;;;;-2.21;76.92;99615.78;4902116;29;20057;-65
2022/11/20 04:09:27;;;;;;;12.68;6.97;;;;;;;-2.32;76.87;99617.75;4918880;28;20039;-66
2022/11/20 04:11:51;;;;;;;10.23;6.72;;;;;;;-2.39;77.35;99615.28;4919112;28;20481;-67
2022/11/20 04:14:16;;;;;;;7.63;4.00;;;;;;;-2.25;77.66;99615.84;4919119;28;20199;-66
2022/11/20 04:16:41;;;;;;;12.13;7.35;;;;;;;-2.21;77.13;99622.75;4918908;28;20433;-64
2022/11/20 04:19:11;;;;;;;12.18;8.15;;;;;;;-2.35;77.19;99622.16;4918482;28;20138;-66
2022/11/20 04:21:36;;;;;;;11.50;7.13;;;;;;;-2.41;77.58;99641.44;4901855;29;20046;-66
2022/11/20 04:24:00;;;;;;;12.05;7.38;;;;;;;-2.38;77.63;99633.53;4918756;28;20552;-65
2022/11/20 04:26:28;;;;;;;13.85;7.68;;;;;;;-2.33;77.65;99636.91;4901462;29;20042;-65
2022/11/20 04:28:53;;;;;;;13.68;7.88;;;;;;;-2.24;77.26;99643.69;4918730;28;20054;-67
2022/11/20 04:31:20;;;;;;;14.45;8.35;;;;;;;-2.29;77.48;99641.19;4901475;28;20049;-65
2022/11/20 04:33:45;;;;;;;17.25;9.63;;;;;;;-2.30;77.29;99641.22;4918741;28;20050;-66
2022/11/20 04:36:14;;;;;;;16.20;7.32;;;;;;;-2.29;77.01;99646.41;4918651;28;20043;-67
2022/11/20 04:38:40;;;;;;;10.57;5.50;;;;;;;-1.93;75.87;99642.19;4920316;28;20039;-68
2022/11/20 04:41:07;;;;;;;13.88;7.68;;;;;;;-2.04;75.29;99640.69;4918753;28;20058;-65
2022/11/20 04:43:33;;;;;;;13.95;7.50;;;;;;;-2.32;75.61;99646.47;4918634;28;20126;-67
2022/11/20 04:45:58;;;;;;;13.13;7.25;;;;;;;-2.42;75.99;99649.28;4918792;28;20051;-70
2022/11/20 04:48:23;;;;;;;13.65;7.72;;;;;;;-2.44;76.91;99669.31;4918848;28;20031;-70
2022/11/20 04:50:48;;;;;;;12.52;7.40;;;;;;;-2.44;76.97;99671.94;4918827;28;20047;-70
2022/11/20 04:53:13;;;;;;;10.32;6.47;;;;;;;-2.45;77.12;99667.59;4918283;28;20054;-69
2022/11/20 04:55:37;;;;;;;12.82;7.93;;;;;;;-2.36;76.85;99668.28;4878969;29;20047;-70
2022/11/20 04:58:02;;;;;;;9.18;5.40;;;;;;;-2.24;76.98;99673.28;4894008;29;20054;-66
2022/11/20 05:00:27;;;;;;;12.75;7.78;;;;;;;-2.35;76.73;99675.22;4883466;29;20039;-65
2022/11/20 05:02:51;;;;;;;11.80;7.55;;;;;;;-2.41;76.85;99677.97;4901186;29;20383;-65
2022/11/20 05:05:16;;;;;;;11.45;7.43;;;;;;;-2.32;76.76;99679.53;4917999;28;20098;-64
2022/11/20 05:07:40;;;;;;;10.80;7.72;;;;;;;-2.32;76.78;99682.16;4893462;29;20045;-64
2022/11/20 05:10:06;;;;;;;12.18;7.82;;;;;;;-2.31;76.80;99691.72;4912544;28;20047;-64
2022/11/20 05:12:31;;;;;;;18.85;8.60;;;;;;;-2.25;76.43;99692.44;4901238;29;20525;-65
2022/11/20 05:14:55;;;;;;;16.13;8.30;;;;;;;-2.37;76.68;99692.66;4900932;29;20054;-65
2022/11/20 05:17:20;;;;;;;15.88;7.88;;;;;;;-2.23;76.35;99689.81;4917766;28;20059;-65
2022/11/20 05:19:44;;;;;;;14.13;7.88;;;;;;;-2.33;76.60;99691.72;4917750;28;20054;-64
2022/11/20 05:22:09;;;;;;;14.48;7.07;;;;;;;-2.17;76.60;99694.94;4917804;28;20530;-63
2022/11/20 05:24:34;;;;;;;16.45;8.13;;;;;;;-2.12;75.99;99703.50;4897530;29;20087;-66
2022/11/20 05:26:59;;;;;;;15.50;8.30;;;;;;;-2.27;76.06;99701.22;4911040;28;20050;-64
2022/11/20 05:29:23;;;;;;;14.95;6.90;;;;;;;-2.37;76.43;99694.44;4915442;29;20126;-64
2022/11/20 05:31:48;;;;;;;14.35;8.55;;;;;;;-2.39;76.60;99710.13;4915404;28;20051;-64
2022/11/20 05:34:12;;;;;;;14.05;8.35;;;;;;;-2.37;76.68;99715.34;4917835;28;20053;-65
2022/11/20 05:36:37;;;;;;;12.52;8.68;;;;;;;-2.34;76.90;99712.63;4900584;29;20102;-64
2022/11/20 05:39:02;;;;;;;12.35;7.35;;;;;;;-2.30;77.15;99715.19;4917787;28;20035;-65
2022/11/20 05:41:26;;;;;;;16.45;8.38;;;;;;;-2.21;76.81;99724.59;4900364;28;20043;-64
2022/11/20 05:43:51;;;;;;;12.20;7.57;;;;;;;-2.25;76.98;99726.38;4900498;29;20051;-64
2022/11/20 05:46:18;;;;;;;12.93;8.50;;;;;;;-2.25;76.76;99712.47;4917668;28;20043;-66
2022/11/20 05:48:44;;;;;;;11.45;7.70;;;;;;;-2.22;77.14;99723.72;4901232;29;20039;-65
2022/11/20 05:51:12;;;;;;;15.73;7.72;;;;;;;-2.19;77.19;99728.03;4889642;29;20130;-66
2022/11/20 05:53:37;;;;;;;12.70;7.68;;;;;;;-2.17;77.13;99736.72;4915913;28;20054;-68
2022/11/20 05:56:04;;;;;;;12.48;7.28;;;;;;;-2.12;76.84;99739.22;4917638;28;20586;-68
2022/11/20 05:58:30;;;;;;;14.38;7.85;;;;;;;-2.13;76.96;99735.75;4904110;28;20043;-70
2022/11/20 06:01:06;;;;;;;14.13;8.10;;;;;;;-2.07;76.98;99742.63;4918412;28;20079;-68
2022/11/20 06:03:31;;;;;;;14.50;8.25;;;;;;;-2.06;76.98;99750.44;4917847;28;20050;-66
2022/11/20 06:05:56;;;;;;;14.00;7.70;;;;;;;-2.02;77.00;99754.69;4900561;29;20503;-67
2022/11/20 06:08:20;;;;;;;11.55;7.30;;;;;;;-1.99;76.92;99759.00;4887788;29;20045;-67
2022/11/20 06:10:45;;;;;;;14.20;8.52;;;;;;;-1.99;76.65;99756.38;4916892;28;20502;-67
2022/11/20 06:13:09;;;;;;;14.25;8.18;;;;;;;-2.00;77.10;99755.53;4917380;28;20043;-67
2022/11/20 06:15:34;;;;;;;9.52;6.28;;;;;;;-1.97;76.83;99776.38;4899919;28;20146;-66
2022/11/20 06:17:58;;;;;;;18.98;8.20;;;;;;;-1.93;76.64;99777.19;4917684;28;20042;-68
2022/11/20 06:20:23;;;;;;;12.82;7.80;;;;;;;-1.90;76.53;99775.34;4886639;28;20108;-66
2022/11/20 06:22:48;;;;;;;13.35;7.28;;;;;;;-1.92;77.04;99779.75;4917329;29;20047;-66
2022/11/20 06:25:13;;;;;;;13.75;8.60;;;;;;;-1.89;76.35;99799.72;4900309;29;20039;-65
2022/11/20 06:27:37;;;;;;;12.60;7.63;;;;;;;-1.86;76.49;99794.44;4917529;28;20049;-66
2022/11/20 06:30:03;;;;;;;12.88;7.85;;;;;;;-1.76;76.39;99785.53;4917561;28;20581;-66
2022/11/20 06:32:28;;;;;;;16.17;8.27;;;;;;;-1.67;75.86;99787.09;4917295;28;20513;-65
2022/11/20 06:34:53;;;;;;;15.65;8.73;;;;;;;-1.70;75.63;99795.91;4881059;29;20525;-65
2022/11/20 06:37:17;;;;;;;15.23;7.93;;;;;;;-1.81;75.82;99799.59;4907897;28;20102;-65
2022/11/20 06:39:42;;;;;;;15.05;9.20;;;;;;;-1.87;76.08;99785.75;4886749;28;20087;-65
2022/11/20 06:42:07;;;;;;;15.57;8.18;;;;;;;-1.89;76.33;99781.44;4901584;29;20047;-65
2022/11/20 06:44:31;;;;;;;17.63;8.40;;;;;;;-1.88;76.52;99780.56;4922690;28;20053;-66
2022/11/20 06:46:56;;;;;;;13.43;8.57;;;;;;;-1.85;76.61;99785.72;4904608;29;20103;-66
2022/11/20 06:49:20;;;;;;;14.75;8.65;;;;;;;-1.78;76.95;99786.47;4918169;28;20129;-65
2022/11/20 06:51:45;;;;;;;15.13;8.98;;;;;;;-1.73;76.66;99785.50;4927339;28;20062;-65
2022/11/20 06:54:10;;;;;;;17.52;8.85;;;;;;;-1.68;76.34;99777.53;4926499;28;20410;-65
2022/11/20 06:56:34;;;;;;;13.70;9.20;;;;;;;-1.64;76.05;99771.38;4925874;28;20043;-65
2022/11/20 06:59:04;;;;;;;15.20;8.40;;;;;;;-1.58;75.96;99768.66;4904659;29;20047;-67
2022/11/20 07:01:28;;;;;;;20.13;9.88;;;;;;;-1.46;75.53;99769.22;4921634;28;20047;-66
2022/11/20 07:03:53;;;;;;;17.85;9.25;;;;;;;-1.53;75.48;99775.50;4921196;28;20548;-65
2022/11/20 07:06:18;;;;;;;16.27;9.13;;;;;;;-1.60;75.59;99783.50;4921433;28;20125;-64
2022/11/20 07:08:42;;;;;;;15.30;9.07;;;;;;;-1.62;75.47;99788.75;4904446;28;20137;-66
2022/11/20 07:11:08;;;;;;;14.45;9.07;;;;;;;-1.58;75.45;99786.94;4922149;28;20126;-64
2022/11/20 07:13:33;;;;;;;13.45;8.43;;;;;;;-1.54;75.46;99786.84;4905963;28;20072;-65
2022/11/20 07:16:07;;;;;;;20.05;8.45;;;;;;;-1.49;75.15;99785.00;4900165;29;20534;-65
2022/11/20 07:18:32;;;;;;;18.63;10.07;;;;;;;-1.48;74.86;99781.50;4902090;29;20047;-65
2022/11/20 07:21:03;;;;;;;13.82;8.90;;;;;;;-1.41;74.79;99792.69;4893756;29;20050;-65
2022/11/20 07:23:28;;;;;;;14.65;8.85;;;;;;;-1.40;74.70;99794.41;4898179;29;20566;-66
2022/11/20 07:25:53;;;;;;;17.00;9.95;;;;;;;-1.38;74.77;99799.59;4923371;28;20791;-65
2022/11/20 07:28:17;;;;;;;15.80;9.70;;;;;;;-1.36;74.45;99793.47;4921914;28;20414;-65
2022/11/20 07:30:48;;;;;;;18.77;10.05;;;;;;;-1.31;74.75;99796.81;4887102;28;20072;-65
2022/11/20 07:33:13;;;;;;;15.63;9.73;;;;;;;-1.34;74.75;99801.25;4884797;29;20162;-66
2022/11/20 07:35:38;;;;;;;19.65;10.65;;;;;;;-1.38;74.61;99802.22;4915261;28;20122;-65
2022/11/20 07:38:02;;;;;;;16.83;9.90;;;;;;;-1.36;74.68;99801.31;4902489;29;20070;-67
2022/11/20 07:40:28;;;;;;;22.10;9.35;;;;;;;-1.35;74.20;99803.00;4905386;29;20086;-64
2022/11/20 07:42:54;;;;;;;17.17;10.60;;;;;;;-1.32;74.36;99808.19;4893808;29;20511;-65
2022/11/20 07:45:21;;;;;;;20.23;9.82;;;;;;;-1.28;74.23;99794.16;4912496;28;20035;-66
2022/11/20 07:47:46;;;;;;;17.90;10.40;;;;;;;-1.22;74.03;99806.22;4897881;29;20517;-64
2022/11/20 07:50:11;;;;;;;16.60;8.88;;;;;;;-1.19;73.89;99809.66;4922544;28;20498;-63
2022/11/20 07:52:36;;;;;;;15.85;9.90;;;;;;;-1.19;74.10;99807.03;4926638;28;20411;-65
2022/11/20 07:55:01;;;;;;;17.48;9.68;;;;;;;-1.19;73.64;99814.00;4925413;28;20410;-64
2022/11/20 07:57:26;;;;;;;18.35;10.25;;;;;;;-1.19;73.85;99809.66;4925481;28;20409;-66
2022/11/20 07:59:51;;;;;;;17.95;10.68;;;;;;;-1.19;73.66;99809.66;4921756;28;20405;-65
2022/11/20 08:02:15;;;;;;;20.52;10.40;;;;;;;-1.18;73.87;99814.00;4920404;28;20050;-65
2022/11/20 08:04:40;;;;;;;17.60;10.32;;;;;;;-1.17;73.75;99818.31;4920340;28;20517;-66
2022/11/20 08:07:04;;;;;;;15.70;9.18;;;;;;;-1.14;73.77;99817.41;4904928;28;20043;-65
2022/11/20 08:09:29;;;;;;;18.05;10.75;;;;;;;-1.17;73.97;99807.00;4902805;29;20040;-65
2022/11/20 08:14:51;;;;;;;22.40;10.07;;;;;;;-1.11;73.87;99838.25;4869814;29;20079;-64
2022/11/20 08:17:16;;;;;;;20.33;12.02;;;;;;;-1.11;74.09;99838.25;4871159;29;20065;-65
2022/11/20 08:19:41;;;;;;;24.17;10.98;;;;;;;-1.20;73.77;99823.63;4854241;29;20045;-64
2022/11/20 08:22:06;;;;;;;16.75;9.80;;;;;;;-1.27;74.25;99824.66;4834190;29;20158;-64
2022/11/20 08:24:31;;;;;;;19.63;10.70;;;;;;;-1.22;74.55;99827.16;4833013;29;20093;-64
2022/11/20 08:26:59;;;;;;;17.88;10.40;;;;;;;-1.18;74.42;99832.28;4831617;29;20053;-64
2022/11/20 08:29:26;;;;;;;19.63;10.32;;;;;;;-1.13;74.12;99837.44;4825550;29;20374;-64
2022/11/20 08:31:51;;;;;;;20.23;11.13;;;;;;;-1.10;73.72;99840.84;4823392;29;20472;-65
2022/11/20 08:34:16;;;;;;;18.77;10.60;;;;;;;-1.07;72.69;99846.91;4823791;29;20045;-65
2022/11/20 08:36:41;;;;;;;25.88;13.13;;;;;;;-1.14;72.37;99843.56;4837106;29;20508;-66
2022/11/20 08:39:06;;;;;;;23.67;12.13;;;;;;;-1.12;72.46;99836.53;4832929;29;20040;-65
2022/11/20 08:41:32;;;;;;;23.90;12.13;;;;;;;-1.08;72.70;99846.03;4826320;29;20539;-65
2022/11/20 08:44:00;;;;;;;23.55;11.27;;;;;;;-1.05;72.94;99847.72;4823681;29;20634;-65
2022/11/20 08:46:27;;;;;;;23.65;11.98;;;;;;;-1.14;72.51;99844.44;4823460;29;20053;-66
2022/11/20 08:48:52;;;;;;;22.20;11.98;;;;;;;-1.05;72.79;99853.84;4808156;29;20166;-64
2022/11/20 08:51:18;;;;;;;19.58;11.00;;;;;;;-1.04;72.92;99858.16;4901112;28;20066;-65
2022/11/20 08:53:43;;;;;;;26.10;11.63;;;;;;;-1.02;73.47;99861.63;4919210;28;20035;-64
2022/11/20 08:56:09;;;;;;;22.85;11.43;;;;;;;-1.00;73.29;99867.66;4918615;28;20130;-66
2022/11/20 08:58:34;;;;;;;21.58;12.35;;;;;;;-1.06;72.88;99882.63;4919150;28;20039;-67
2022/11/20 09:00:59;;;;;;;19.02;12.23;;;;;;;-1.05;72.84;99876.50;4894232;29;20047;-65
2022/11/20 09:03:26;;;;;;;22.02;11.93;;;;;;;-1.06;73.23;99886.13;4913810;28;20042;-66
2022/11/20 09:05:57;;;;;;;23.90;13.30;;;;;;;-1.13;73.23;99893.22;4918580;28;20129;-65
2022/11/20 09:08:22;;;;;;;26.08;13.25;;;;;;;-1.16;72.92;99903.75;4901102;29;20043;-65
2022/11/20 09:10:51;;;;;;;30.35;13.63;;;;;;;-1.15;73.19;99896.78;4882834;29;20620;-65
2022/11/20 09:13:16;;;;;;;15.60;7.55;;;;;;;-1.13;73.45;99908.06;4910902;28;20049;-66
2022/11/20 09:15:41;;;;;;;30.52;15.05;;;;;;;-1.25;73.41;99913.53;4895241;29;20055;-65
2022/11/20 09:18:06;;;;;;;24.48;13.20;;;;;;;-1.29;73.62;99906.63;4899672;29;20052;-65
2022/11/20 09:20:31;;;;;;;23.42;12.02;;;;;;;-1.30;74.12;99911.00;4869420;29;20043;-65
2022/11/20 09:22:57;;;;;;;24.73;13.32;;;;;;;-1.24;74.22;99921.34;4881826;29;20195;-65
2022/11/20 09:25:22;;;;;;;24.58;12.73;;;;;;;-1.21;74.32;99920.41;4869275;29;20423;-65
2022/11/20 09:27:47;;;;;;;32.10;15.43;;;;;;;-1.22;74.66;99940.47;4898526;29;20419;-66
2022/11/20 09:30:16;;;;;;;26.40;14.23;;;;;;;-1.21;74.69;99939.59;4899121;29;20411;-66
2022/11/20 09:32:42;;;;;;;29.52;14.10;;;;;;;-1.19;74.88;99943.06;4899094;29;20039;-66
2022/11/20 09:35:07;;;;;;;24.73;13.57;;;;;;;-1.12;74.48;99946.41;4881907;29;20042;-66
2022/11/20 09:37:32;;;;;;;50.95;17.50;;;;;;;-1.20;74.80;99945.69;4899142;29;20051;-66
2022/11/20 09:39:57;;;;;;;28.90;15.20;;;;;;;-1.25;75.09;99945.78;4898957;29;20043;-65
2022/11/20 09:42:32;;;;;;;25.10;12.27;;;;;;;-1.20;75.11;99938.72;4899080;29;20074;-66
2022/11/20 09:45:22;;;;;;;35.40;16.42;;;;;;;-1.22;75.28;99942.22;4898721;29;20075;-65
2022/11/20 09:48:16;;;;;;;31.00;15.60;;;;;;;-1.24;75.38;99939.66;4898817;29;20052;-65
2022/11/20 09:51:18;;;;;;;43.80;16.27;;;;;;;-1.35;76.11;99943.34;4898742;29;20481;-65
2022/11/20 09:53:52;;;;;;;25.38;12.15;;;;;;;-1.30;75.97;99933.69;4898614;29;20422;-65
2022/11/20 09:56:19;;;;;;;28.83;13.40;;;;;;;-1.29;76.08;99940.63;4898420;29;20074;-65
2022/11/20 09:58:50;;;;;;;32.92;15.10;;;;;;;-1.26;76.57;99951.06;4898486;29;20510;-64
2022/11/20 10:01:21;;;;;;;24.48;13.00;;;;;;;-1.16;76.47;99945.63;4881689;29;20047;-65
2022/11/20 10:04:15;;;;;;;26.42;12.30;;;;;;;-1.02;76.41;99947.97;4898542;29;20134;-64
2022/11/20 10:07:02;;;;;;;25.02;12.68;;;;;;;-0.92;76.80;99943.41;4899140;29;20128;-65
2022/11/20 10:09:30;;;;;;;26.42;14.05;;;;;;;-0.83;75.98;99951.06;4882428;29;20047;-65
2022/11/20 10:12:05;;;;;;;24.95;12.25;;;;;;;-0.81;74.87;99947.53;4869315;29;20476;-65
2022/11/20 10:14:52;;;;;;;21.80;12.35;;;;;;;-0.79;74.54;99948.34;4899557;29;20526;-67
2022/11/20 10:17:37;;;;;;;31.67;16.95;;;;;;;-0.94;74.57;99950.41;4872987;29;20043;-65
2022/11/20 10:20:24;;;;;;;27.55;14.73;;;;;;;-0.88;74.89;99965.97;4889599;29;20055;-66
2022/11/20 10:23:04;;;;;;;25.48;14.30;;;;;;;-0.98;74.39;99962.69;4910403;29;20066;-67
2022/11/20 10:26:03;;;;;;;25.33;14.00;;;;;;;-0.96;74.95;99960.06;4905839;29;20055;-65
2022/11/20 10:29:00;;;;;;;27.73;13.75;;;;;;;-0.91;75.29;99953.84;4865592;29;20059;-64
2022/11/20 10:31:34;;;;;;;25.30;13.38;;;;;;;-0.88;74.74;99965.97;4880202;29;20063;-66
2022/11/20 10:34:02;;;;;;;27.85;14.43;;;;;;;-0.86;74.69;99966.81;4879890;29;20098;-66
2022/11/20 10:36:33;;;;;;;20.92;12.63;;;;;;;-0.88;74.79;99955.53;4879668;29;20044;-64
2022/11/20 10:39:05;;;;;;;31.20;14.25;;;;;;;-0.92;74.91;99959.13;4879485;29;20052;-64
2022/11/20 10:41:37;;;;;;;25.95;14.15;;;;;;;-0.91;75.12;99966.94;4879920;29;20107;-65
2022/11/20 10:47:05;;;;;;;24.33;12.35;;;;;;;-0.93;75.00;99973.09;4866578;29;20048;-65
2022/11/20 10:49:32;;;;;;;29.13;14.07;;;;;;;-0.92;75.47;99977.44;4879346;29;20039;-66
2022/11/20 10:52:50;;;;;;;21.02;12.40;;;;;;;-0.92;74.96;99983.53;4879333;29;20051;-66
2022/11/20 10:55:39;;;;;;;27.25;12.93;;;;;;;-0.96;75.08;99988.84;4848442;29;20045;-65
2022/11/20 10:58:10;;;;;;;22.75;13.23;;;;;;;-1.03;75.29;99984.63;4849921;29;20052;-65
2022/11/20 11:00:36;;;;;;;19.42;12.05;;;;;;;-1.04;74.96;99988.13;4851852;29;20579;-65
2022/11/20 11:03:02;;;;;;;21.95;11.43;;;;;;;-1.02;75.26;99989.84;4861673;29;20074;-66
2022/11/20 11:05:43;;;;;;;25.08;12.90;;;;;;;-0.94;75.10;99990.53;4846075;29;20091;-65
2022/11/20 11:08:13;;;;;;;19.25;11.57;;;;;;;-0.99;75.05;99994.13;4862141;29;20125;-65
2022/11/20 11:11:01;;;;;;;20.98;12.65;;;;;;;-0.91;75.20;100005.31;4863065;29;20148;-66
2022/11/20 11:13:29;;;;;;;21.80;12.38;;;;;;;-0.93;74.90;100001.88;4861701;29;20108;-67
2022/11/20 11:15:55;;;;;;;20.80;13.00;;;;;;;-1.05;73.53;99997.72;4868453;29;20064;-65
2022/11/20 11:18:27;;;;;;;22.73;12.85;;;;;;;-1.09;72.97;99998.66;4880370;29;20059;-65
2022/11/20 11:20:53;;;;;;;19.10;11.73;;;;;;;-1.08;72.84;100000.41;4880154;29;20044;-65
2022/11/20 11:23:36;;;;;;;17.80;10.48;;;;;;;-1.07;72.68;99996.03;4880122;29;20138;-67
2022/11/20 11:26:04;;;;;;;21.65;11.93;;;;;;;-1.20;72.15;100006.72;4883552;29;20054;-67
2022/11/20 11:28:29;;;;;;;23.45;11.35;;;;;;;-1.23;71.92;100016.34;4902885;29;20514;-65
2022/11/20 11:30:55;;;;;;;22.90;10.73;;;;;;;-1.19;71.99;100003.22;4885242;29;20542;-64
2022/11/20 11:33:23;;;;;;;19.08;10.80;;;;;;;-1.12;72.27;100009.19;4911264;28;20047;-65